createdAt,value
2022-09-07T00:01:01.060Z,17.10
2022-09-07T00:03:27.921Z,17.15
2022-09-07T00:05:54.485Z,17.07
2022-09-07T00:08:23.262Z,17.12
2022-09-07T00:10:56.786Z,17.19
2022-09-07T00:13:24.798Z,17.23
2022-09-07T00:15:52.079Z,17.20
2022-09-07T00:18:19.390Z,17.18
2022-09-07T00:20:45.867Z,17.25
2022-09-07T00:23:12.814Z,17.32
2022-09-07T00:25:40.550Z,17.12
2022-09-07T00:28:08.578Z,17.12
2022-09-07T00:30:41.264Z,17.18
2022-09-07T00:33:07.778Z,17.13
2022-09-07T00:35:39.796Z,17.17
2022-09-07T00:38:06.317Z,17.18
2022-09-07T00:40:32.817Z,17.25
2022-09-07T00:42:59.275Z,17.28
2022-09-07T00:45:25.970Z,17.20
2022-09-07T00:47:59.280Z,17.20
2022-09-07T00:50:28.919Z,17.19
2022-09-07T00:53:04.946Z,17.24
2022-09-07T00:55:33.110Z,17.18
2022-09-07T00:58:00.241Z,17.21
2022-09-07T01:00:27.368Z,17.24
2022-09-07T01:02:56.639Z,17.14
2022-09-07T01:05:54.111Z,17.16
2022-09-07T01:08:21.322Z,17.19
2022-09-07T01:10:47.951Z,17.16
2022-09-07T01:13:15.185Z,17.17
2022-09-07T01:16:10.753Z,17.12
2022-09-07T01:18:47.216Z,17.13
2022-09-07T01:21:44.517Z,17.09
2022-09-07T01:24:29.418Z,17.16
2022-09-07T01:27:33.689Z,17.21
2022-09-07T01:30:05.878Z,17.09
2022-09-07T01:32:44.424Z,17.08
2022-09-07T01:35:20.318Z,17.03
2022-09-07T01:38:02.953Z,17.01
2022-09-07T01:40:40.015Z,17.12
2022-09-07T01:43:17.201Z,17.09
2022-09-07T01:45:45.797Z,17.13
2022-09-07T01:48:16.666Z,17.12
2022-09-07T01:51:01.574Z,17.09
2022-09-07T01:53:43.290Z,17.11
2022-09-07T01:56:14.715Z,17.14
2022-09-07T01:59:30.745Z,17.13
2022-09-07T02:02:11.388Z,17.14
2022-09-07T02:04:46.121Z,17.18
2022-09-07T02:07:20.365Z,17.06
2022-09-07T02:09:54.439Z,17.06
2022-09-07T02:12:26.837Z,16.96
2022-09-07T02:14:59.969Z,17.11
2022-09-07T02:17:34.361Z,17.01
2022-09-07T02:20:12.771Z,17.04
2022-09-07T02:22:44.300Z,16.80
2022-09-07T02:25:17.437Z,16.91
2022-09-07T02:27:48.326Z,16.84
2022-09-07T02:30:15.400Z,16.86
2022-09-07T02:32:42.069Z,16.82
2022-09-07T02:35:09.510Z,16.73
2022-09-07T02:37:37.846Z,16.76
2022-09-07T02:40:05.429Z,16.74
2022-09-07T02:42:34.265Z,16.81
2022-09-07T02:45:05.090Z,16.75
2022-09-07T02:47:45.175Z,16.85
2022-09-07T02:50:30.814Z,16.76
2022-09-07T02:53:29.365Z,16.73
2022-09-07T02:56:33.084Z,16.72
2022-09-07T02:59:17.982Z,16.80
2022-09-07T03:02:08.423Z,16.69
2022-09-07T03:05:19.838Z,16.68
2022-09-07T03:07:56.220Z,16.73
2022-09-07T03:10:23.249Z,16.76
2022-09-07T03:12:51.251Z,16.80
2022-09-07T03:15:21.210Z,16.82
2022-09-07T03:17:48.133Z,16.81
2022-09-07T03:20:16.477Z,16.83
2022-09-07T03:22:47.743Z,16.90
2022-09-07T03:25:15.374Z,16.95
2022-09-07T03:27:42.508Z,16.98
2022-09-07T03:30:10.843Z,17.04
2022-09-07T03:32:38.521Z,17.03
2022-09-07T03:35:06.626Z,16.96
2022-09-07T03:37:36.304Z,16.90
2022-09-07T03:40:04.643Z,16.89
2022-09-07T03:42:31.186Z,16.95
2022-09-07T03:44:57.650Z,16.94
2022-09-07T03:47:24.130Z,16.97
2022-09-07T03:49:51.764Z,16.88
2022-09-07T03:52:18.257Z,16.83
2022-09-07T03:54:44.874Z,16.90
2022-09-07T03:57:11.833Z,16.96
2022-09-07T03:59:38.285Z,17.00
2022-09-07T04:02:05.052Z,17.05
2022-09-07T04:04:31.647Z,17.09
2022-09-07T04:06:58.151Z,17.13
2022-09-07T04:09:24.656Z,17.15
2022-09-07T04:11:51.127Z,17.08
2022-09-07T04:14:17.918Z,17.03
2022-09-07T04:16:45.599Z,17.10
2022-09-07T04:19:12.143Z,16.97
2022-09-07T04:21:39.055Z,16.84
2022-09-07T04:24:05.835Z,16.55
2022-09-07T04:26:34.357Z,16.68
2022-09-07T04:29:04.106Z,16.78
2022-09-07T04:31:32.684Z,16.79
2022-09-07T04:33:59.298Z,16.74
2022-09-07T04:36:25.878Z,16.76
2022-09-07T04:38:57.395Z,16.76
2022-09-07T04:41:24.358Z,16.81
2022-09-07T04:43:56.614Z,16.76
2022-09-07T04:46:35.860Z,16.77
2022-09-07T04:49:08.582Z,16.80
2022-09-07T04:51:36.335Z,16.76
2022-09-07T04:54:04.071Z,16.84
2022-09-07T04:56:31.863Z,16.77
2022-09-07T04:59:00.650Z,16.93
2022-09-07T05:01:27.651Z,16.97
2022-09-07T05:03:54.200Z,17.06
2022-09-07T05:06:22.290Z,17.01
2022-09-07T05:08:51.534Z,17.00
2022-09-07T05:11:19.596Z,17.11
2022-09-07T05:13:46.163Z,17.14
2022-09-07T05:16:20.730Z,17.16
2022-09-07T05:19:01.682Z,17.21
2022-09-07T05:21:30.484Z,17.28
2022-09-07T05:23:58.924Z,17.33
2022-09-07T05:26:27.777Z,17.42
2022-09-07T05:31:41.430Z,17.35
2022-09-07T05:36:56.100Z,17.37
2022-09-07T05:39:23.013Z,17.45
2022-09-07T05:41:49.818Z,17.50
2022-09-07T05:47:02.826Z,17.51
2022-09-07T05:49:30.294Z,17.45
2022-09-07T05:51:56.832Z,17.54
2022-09-07T05:54:23.669Z,17.59
2022-09-07T05:56:50.132Z,17.51
2022-09-07T05:59:16.586Z,17.75
2022-09-07T06:01:43.103Z,17.73
2022-09-07T06:04:09.873Z,17.73
2022-09-07T06:06:38.710Z,17.92
2022-09-07T06:09:05.245Z,17.96
2022-09-07T06:11:31.738Z,18.22
2022-09-07T06:13:58.206Z,18.39
2022-09-07T06:16:24.825Z,18.36
2022-09-07T06:18:51.422Z,18.51
2022-09-07T06:21:20.537Z,18.48
2022-09-07T06:23:48.706Z,18.66
2022-09-07T06:26:16.821Z,18.65
2022-09-07T06:28:50.281Z,18.74
2022-09-07T06:31:20.410Z,18.79
2022-09-07T06:33:48.132Z,18.78
2022-09-07T06:36:17.077Z,18.59
2022-09-07T06:38:44.451Z,18.88
2022-09-07T06:44:04.650Z,18.90
2022-09-07T06:49:17.671Z,19.19
2022-09-07T06:51:44.467Z,19.33
2022-09-07T06:56:57.652Z,19.20
2022-09-07T06:59:24.203Z,19.37
2022-09-07T07:01:50.703Z,19.41
2022-09-07T07:04:17.170Z,19.43
2022-09-07T07:06:43.652Z,19.47
2022-09-07T07:09:13.755Z,19.44
2022-09-07T07:11:40.246Z,19.45
2022-09-07T07:14:06.783Z,19.43
2022-09-07T07:16:33.360Z,19.59
2022-09-07T07:18:59.895Z,19.63
2022-09-07T07:21:28.925Z,19.74
2022-09-07T07:24:05.022Z,19.82
2022-09-07T07:26:34.695Z,19.75
2022-09-07T07:29:03.969Z,19.83
2022-09-07T07:31:33.186Z,19.97
2022-09-07T07:33:59.905Z,20.04
2022-09-07T07:36:27.563Z,20.35
2022-09-07T07:38:58.863Z,20.48
2022-09-07T07:44:18.014Z,20.38
2022-09-07T07:46:48.614Z,20.28
2022-09-07T07:49:15.085Z,20.59
2022-09-07T07:54:27.902Z,20.81
2022-09-07T07:56:54.328Z,21.63
2022-09-07T07:59:20.745Z,21.57
2022-09-07T08:01:47.276Z,21.27
2022-09-07T08:04:13.877Z,21.39
2022-09-07T08:06:43.131Z,21.67
2022-09-07T08:09:10.977Z,21.87
2022-09-07T08:11:40.092Z,22.33
2022-09-07T08:14:08.603Z,22.13
2022-09-07T08:16:36.253Z,21.75
2022-09-07T08:19:03.391Z,21.87
2022-09-07T08:21:29.875Z,21.93
2022-09-07T08:23:57.560Z,21.86
2022-09-07T08:26:23.981Z,22.11
2022-09-07T08:28:50.386Z,21.79
2022-09-07T08:31:17.221Z,21.48
2022-09-07T08:33:44.430Z,21.45
2022-09-07T08:36:17.614Z,21.54
2022-09-07T08:38:44.747Z,21.82
2022-09-07T08:41:22.917Z,21.96
2022-09-07T08:43:59.634Z,21.95
2022-09-07T08:46:34.559Z,22.21
2022-09-07T08:49:03.243Z,22.13
2022-09-07T08:51:32.313Z,22.45
2022-09-07T08:53:59.046Z,22.35
2022-09-07T08:56:33.679Z,22.44
2022-09-07T08:59:06.593Z,22.72
2022-09-07T09:01:37.965Z,22.71
2022-09-07T09:04:17.332Z,23.06
2022-09-07T09:07:05.753Z,23.66
2022-09-07T09:09:53.930Z,23.65
2022-09-07T09:12:40.359Z,23.95
2022-09-07T09:15:21.513Z,23.94
2022-09-07T09:18:28.802Z,24.08
2022-09-07T09:20:57.015Z,24.31
2022-09-07T09:23:26.916Z,24.28
2022-09-07T09:25:55.979Z,24.27
2022-09-07T09:28:23.975Z,24.34
2022-09-07T09:30:51.998Z,23.72
2022-09-07T09:33:27.465Z,23.59
2022-09-07T09:36:00.004Z,23.44
2022-09-07T09:38:29.317Z,23.38
2022-09-07T09:40:58.181Z,23.18
2022-09-07T09:43:28.147Z,23.58
2022-09-07T09:46:12.976Z,23.24
2022-09-07T09:48:41.614Z,23.54
2022-09-07T09:54:06.288Z,23.27
2022-09-07T09:56:44.849Z,23.57
2022-09-07T10:05:22.840Z,23.38
2022-09-07T10:07:53.654Z,23.85
2022-09-07T10:10:20.445Z,23.52
2022-09-07T10:12:46.973Z,23.56
2022-09-07T10:15:30.003Z,23.85
2022-09-07T10:17:58.165Z,23.97
2022-09-07T10:20:33.620Z,23.79
2022-09-07T10:23:01.214Z,24.31
2022-09-07T10:25:32.363Z,24.45
2022-09-07T10:28:03.312Z,24.81
2022-09-07T10:30:41.312Z,25.10
2022-09-07T10:33:24.275Z,24.65
2022-09-07T10:36:15.540Z,24.57
2022-09-07T10:38:53.794Z,24.68
2022-09-07T10:41:31.431Z,25.07
2022-09-07T10:43:58.761Z,25.28
2022-09-07T10:47:03.691Z,25.57
2022-09-07T10:49:39.210Z,25.89
2022-09-07T10:52:32.657Z,25.82
2022-09-07T10:55:11.943Z,25.74
2022-09-07T10:57:49.213Z,25.80
2022-09-07T11:00:19.169Z,25.56
2022-09-07T11:03:26.165Z,25.64
2022-09-07T11:06:14.011Z,25.83
2022-09-07T11:12:03.141Z,26.15
2022-09-07T11:14:45.172Z,26.07
2022-09-07T11:17:18.895Z,26.36
2022-09-07T11:19:49.331Z,26.60
2022-09-07T11:22:43.327Z,26.67
2022-09-07T11:25:34.562Z,26.80
2022-09-07T11:28:09.000Z,26.65
2022-09-07T11:30:43.625Z,26.86
2022-09-07T11:33:21.848Z,27.31
2022-09-07T11:36:02.274Z,27.31
2022-09-07T11:38:41.747Z,27.69
2022-09-07T11:41:20.564Z,28.19
2022-09-07T11:43:55.010Z,29.19
2022-09-07T11:46:39.394Z,28.42
2022-09-07T11:49:12.757Z,27.41
2022-09-07T11:51:46.422Z,27.26
2022-09-07T11:54:48.457Z,28.15
2022-09-07T11:57:14.854Z,27.46
2022-09-07T11:59:57.655Z,27.60
2022-09-07T12:02:58.288Z,28.00
2022-09-07T12:05:41.604Z,29.20
2022-09-07T12:08:26.516Z,28.93
2022-09-07T12:11:24.327Z,28.32
2022-09-07T12:14:12.503Z,28.45
2022-09-07T12:17:03.838Z,29.65
2022-09-07T12:19:30.375Z,29.40
2022-09-07T12:21:59.344Z,30.68
2022-09-07T12:24:43.821Z,31.97
2022-09-07T12:27:20.383Z,30.85
2022-09-07T12:30:10.352Z,29.84
2022-09-07T12:32:57.374Z,29.52
2022-09-07T12:35:37.161Z,27.65
2022-09-07T12:38:24.671Z,27.99
2022-09-07T12:41:20.537Z,27.31
2022-09-07T12:43:49.922Z,27.14
2022-09-07T12:46:47.133Z,27.26
2022-09-07T12:49:50.490Z,27.43
2022-09-07T12:52:25.834Z,27.44
2022-09-07T12:55:23.534Z,27.34
2022-09-07T12:57:54.461Z,27.08
2022-09-07T13:00:24.062Z,27.39
2022-09-07T13:03:05.845Z,27.12
2022-09-07T13:05:51.600Z,27.81
2022-09-07T13:08:27.110Z,28.28
2022-09-07T13:10:53.662Z,28.79
2022-09-07T13:16:31.387Z,29.88
2022-09-07T13:19:01.893Z,29.54
2022-09-07T13:21:40.576Z,29.83
2022-09-07T13:27:05.415Z,30.11
2022-09-07T13:29:40.833Z,30.07
2022-09-07T13:33:07.943Z,28.95
2022-09-07T13:35:18.710Z,29.06
2022-09-07T13:37:54.380Z,29.47
2022-09-07T13:40:30.519Z,29.09
2022-09-07T13:42:58.591Z,29.03
2022-09-07T13:45:55.807Z,28.79
2022-09-07T13:48:34.271Z,29.06
2022-09-07T13:51:13.414Z,28.41
2022-09-07T13:54:19.129Z,27.77
2022-09-07T13:57:03.762Z,27.43
2022-09-07T13:59:35.068Z,27.12
2022-09-07T14:02:02.434Z,27.38
2022-09-07T14:04:41.583Z,27.50
2022-09-07T14:07:16.543Z,27.39
2022-09-07T14:09:42.942Z,27.11
2022-09-07T14:12:19.209Z,26.97
2022-09-07T14:14:46.806Z,27.77
2022-09-07T14:17:19.372Z,27.79
2022-09-07T14:19:51.477Z,28.33
2022-09-07T14:22:22.785Z,28.43
2022-09-07T14:24:52.956Z,28.42
2022-09-07T14:27:21.603Z,27.64
2022-09-07T14:29:48.043Z,27.24
2022-09-07T14:32:18.928Z,27.41
2022-09-07T14:34:46.532Z,27.17
2022-09-07T14:37:15.630Z,27.13
2022-09-07T14:39:46.046Z,27.14
2022-09-07T14:42:15.662Z,27.24
2022-09-07T14:44:45.344Z,27.31
2022-09-07T14:47:30.855Z,27.37
2022-09-07T14:50:05.806Z,27.75
2022-09-07T14:53:33.106Z,27.38
2022-09-07T14:55:34.685Z,27.73
2022-09-07T14:58:13.319Z,27.96
2022-09-07T15:00:46.020Z,28.00
2022-09-07T15:03:39.200Z,27.85
2022-09-07T15:06:06.961Z,27.83
2022-09-07T15:08:43.870Z,27.85
2022-09-07T15:11:34.364Z,27.91
2022-09-07T15:14:03.607Z,27.84
2022-09-07T15:16:33.481Z,27.85
2022-09-07T15:19:02.346Z,27.70
2022-09-07T15:21:34.001Z,27.85
2022-09-07T15:24:01.368Z,27.53
2022-09-07T15:29:24.452Z,27.50
2022-09-07T15:32:02.196Z,27.52
2022-09-07T15:34:30.809Z,27.49
2022-09-07T15:37:00.147Z,27.43
2022-09-07T15:39:29.956Z,27.35
2022-09-07T15:41:58.209Z,27.40
2022-09-07T15:44:28.321Z,27.61
2022-09-07T15:49:47.698Z,27.20
2022-09-07T15:52:16.752Z,27.21
2022-09-07T15:54:43.507Z,27.28
2022-09-07T15:59:56.510Z,27.03
2022-09-07T16:05:10.164Z,26.90
2022-09-07T16:10:23.173Z,26.75
2022-09-07T16:13:10.923Z,26.74
2022-09-07T16:15:45.277Z,26.79
2022-09-07T16:18:17.220Z,26.60
2022-09-07T16:20:44.794Z,26.70
2022-09-07T16:23:14.751Z,26.59
2022-09-07T16:25:43.414Z,26.58
2022-09-07T16:28:10.571Z,26.44
2022-09-07T16:30:40.908Z,26.37
2022-09-07T16:33:08.289Z,26.28
2022-09-07T16:35:34.939Z,26.22
2022-09-07T16:40:50.120Z,26.16
2022-09-07T16:43:16.916Z,25.89
2022-09-07T16:48:34.698Z,25.72
2022-09-07T16:51:02.952Z,25.66
2022-09-07T16:53:32.265Z,25.54
2022-09-07T16:56:16.954Z,25.49
2022-09-07T16:58:49.263Z,25.44
2022-09-07T17:01:18.775Z,25.33
2022-09-07T17:03:46.264Z,25.25
2022-09-07T17:06:14.667Z,25.13
2022-09-07T17:08:41.956Z,25.01
2022-09-07T17:11:16.478Z,24.99
2022-09-07T17:13:43.311Z,24.83
2022-09-07T17:16:14.157Z,24.76
2022-09-07T17:21:31.227Z,24.53
2022-09-07T17:23:59.460Z,24.42
2022-09-07T17:26:27.306Z,24.31
2022-09-07T17:28:59.569Z,24.23
2022-09-07T17:34:15.443Z,24.03
2022-09-07T17:36:42.731Z,23.96
2022-09-07T17:39:18.062Z,23.84
2022-09-07T17:41:46.652Z,23.78
2022-09-07T17:44:13.826Z,23.68
2022-09-07T17:46:40.409Z,23.60
2022-09-07T17:49:08.217Z,23.51
2022-09-07T17:51:36.090Z,23.39
2022-09-07T17:54:12.317Z,23.26
2022-09-07T17:56:40.125Z,23.19
2022-09-07T18:01:54.281Z,22.85
2022-09-07T18:04:21.409Z,22.73
2022-09-07T18:06:48.183Z,22.67
2022-09-07T18:09:14.734Z,22.54
2022-09-07T18:11:44.818Z,22.46
2022-09-07T18:14:14.187Z,22.29
2022-09-07T18:16:41.335Z,22.21
2022-09-07T18:19:08.628Z,22.17
2022-09-07T18:21:37.320Z,22.14
2022-09-07T18:24:07.651Z,21.97
2022-09-07T18:26:38.348Z,21.86
2022-09-07T18:29:12.972Z,21.84
2022-09-07T18:31:45.811Z,21.79
2022-09-07T18:34:12.431Z,21.66
2022-09-07T18:36:40.779Z,21.64
2022-09-07T18:39:10.054Z,21.65
2022-09-07T18:41:37.567Z,21.56
2022-09-07T18:44:04.203Z,21.46
2022-09-07T18:46:30.895Z,21.35
2022-09-07T18:48:58.222Z,21.38
2022-09-07T18:51:24.898Z,21.28
2022-09-07T18:53:51.353Z,21.17
2022-09-07T18:56:20.330Z,21.10
2022-09-07T18:58:47.724Z,21.07
2022-09-07T19:01:16.556Z,21.12
2022-09-07T19:03:44.240Z,21.06
2022-09-07T19:06:15.188Z,21.05
2022-09-07T19:08:43.543Z,21.01
2022-09-07T19:11:22.161Z,20.90
2022-09-07T19:13:48.616Z,20.85
2022-09-07T19:16:17.510Z,20.87
2022-09-07T19:18:52.730Z,20.84
2022-09-07T19:21:25.242Z,20.75
2022-09-07T19:23:59.470Z,20.72
2022-09-07T19:26:29.526Z,20.64
2022-09-07T19:28:58.050Z,20.63
2022-09-07T19:31:25.968Z,20.56
2022-09-07T19:34:00.095Z,20.63
2022-09-07T19:36:27.855Z,20.56
2022-09-07T19:38:54.471Z,20.53
2022-09-07T19:41:21.227Z,20.40
2022-09-07T19:43:48.397Z,20.23
2022-09-07T19:46:20.357Z,20.18
2022-09-07T19:48:49.278Z,20.25
2022-09-07T19:51:16.571Z,20.26
2022-09-07T19:53:47.111Z,20.32
2022-09-07T19:56:18.801Z,20.36
2022-09-07T19:58:45.922Z,20.37
2022-09-07T20:01:14.807Z,20.41
2022-09-07T20:03:42.670Z,20.38
2022-09-07T20:06:14.567Z,20.35
2022-09-07T20:08:42.752Z,20.38
2022-09-07T20:11:14.400Z,20.33
2022-09-07T20:13:41.611Z,20.26
2022-09-07T20:16:11.757Z,20.21
2022-09-07T20:18:39.183Z,20.24
2022-09-07T20:21:07.599Z,20.21
2022-09-07T20:23:35.166Z,20.26
2022-09-07T20:26:05.299Z,20.26
2022-09-07T20:28:32.058Z,20.23
2022-09-07T20:30:58.531Z,20.24
2022-09-07T20:33:24.968Z,20.19
2022-09-07T20:35:51.656Z,20.16
2022-09-07T20:38:20.644Z,20.14
2022-09-07T20:40:54.984Z,20.20
2022-09-07T20:43:22.027Z,20.22
2022-09-07T20:45:48.683Z,20.26
2022-09-07T20:48:15.569Z,20.27
2022-09-07T20:50:42.264Z,20.20
2022-09-07T20:53:08.837Z,20.25
2022-09-07T20:55:35.984Z,20.18
2022-09-07T20:58:03.076Z,20.21
2022-09-07T21:00:29.626Z,20.16
2022-09-07T21:02:56.305Z,20.13
2022-09-07T21:05:22.770Z,20.16
2022-09-07T21:07:49.318Z,20.14
2022-09-07T21:10:15.980Z,20.21
2022-09-07T21:12:42.398Z,20.15
2022-09-07T21:15:09.179Z,20.22
2022-09-07T21:17:35.598Z,20.19
2022-09-07T21:20:02.227Z,20.19
2022-09-07T21:22:28.625Z,20.22
2022-09-07T21:24:55.024Z,20.24
2022-09-07T21:27:21.483Z,20.22
2022-09-07T21:29:47.891Z,20.12
2022-09-07T21:32:14.329Z,20.15
2022-09-07T21:34:40.763Z,20.14
2022-09-07T21:37:07.166Z,20.15
2022-09-07T21:39:33.631Z,20.17
2022-09-07T21:42:00.125Z,20.07
2022-09-07T21:44:26.559Z,20.13
2022-09-07T21:46:53.003Z,20.07
2022-09-07T21:49:19.483Z,20.11
2022-09-07T21:51:45.865Z,20.10
2022-09-07T21:54:12.311Z,20.05
2022-09-07T21:56:41.079Z,20.09
2022-09-07T21:59:11.006Z,20.16
2022-09-07T22:01:37.680Z,20.12
2022-09-07T22:04:07.079Z,20.14
2022-09-07T22:06:34.430Z,20.18
2022-09-07T22:09:01.931Z,20.20
2022-09-07T22:11:29.552Z,20.22
2022-09-07T22:13:58.095Z,20.25
2022-09-07T22:16:25.330Z,20.28
2022-09-07T22:18:52.122Z,20.30
2022-09-07T22:21:26.903Z,20.29
2022-09-07T22:23:57.315Z,20.23
2022-09-07T22:26:26.545Z,20.31
2022-09-07T22:28:52.986Z,20.30
2022-09-07T22:31:24.791Z,20.19
2022-09-07T22:33:52.818Z,20.24
2022-09-07T22:36:31.059Z,20.26
2022-09-07T22:38:59.143Z,20.30
2022-09-07T22:41:38.192Z,20.37
2022-09-07T22:44:06.485Z,20.30
2022-09-07T22:46:37.451Z,20.15
2022-09-07T22:49:05.392Z,20.22
2022-09-07T22:51:31.920Z,20.10
2022-09-07T22:53:58.838Z,19.76
2022-09-07T22:56:31.304Z,19.36
2022-09-07T22:59:00.776Z,19.11
2022-09-07T23:01:28.917Z,19.12
2022-09-07T23:03:56.231Z,18.83
2022-09-07T23:06:28.435Z,18.57
2022-09-07T23:08:56.724Z,18.35
2022-09-07T23:11:24.643Z,18.23
2022-09-07T23:13:56.177Z,17.88
2022-09-07T23:16:23.021Z,17.92
2022-09-07T23:18:50.395Z,17.89
2022-09-07T23:21:17.141Z,17.50
2022-09-07T23:23:44.383Z,17.44
2022-09-07T23:26:10.818Z,17.21
2022-09-07T23:28:37.248Z,16.96
2022-09-07T23:31:03.948Z,16.83
2022-09-07T23:33:30.496Z,16.92
2022-09-07T23:36:01.803Z,16.95
2022-09-07T23:38:29.093Z,16.98
2022-09-07T23:40:58.280Z,16.93
2022-09-07T23:43:27.351Z,16.81
2022-09-07T23:45:54.169Z,16.68
2022-09-07T23:48:21.640Z,16.61
2022-09-07T23:50:48.880Z,16.49
2022-09-07T23:53:16.183Z,16.41
2022-09-07T23:55:42.843Z,16.35
2022-09-07T23:58:09.804Z,16.20
